Time;durP1;ratioP1;P1;durP2;ratioP2;P2;SDS_P1;SDS_P2;PMS_P1;PMS_P2;Temp;Humidity;BMP_temperature;BMP_pressure;BME280_temperature;BME280_humidity;BME280_pressure;Samples;Min_cycle;Max_cycle;Signal;HPM_P1;HPM_P2
2021/12/11 00:01:44;;;;;;;0.80;0.40;;;;;;;17.63;24.70;101186.53;5111572;28;20082;-58
2021/12/11 00:04:16;;;;;;;1.45;1.38;;;;;;;17.58;25.16;101180.72;5111620;28;20066;-59
2021/12/11 00:06:45;;;;;;;2.83;1.75;;;;;;;17.63;24.70;101183.00;5111357;28;20410;-59
2021/12/11 00:09:22;;;;;;;0.10;0.10;;;;;;;17.68;24.77;101179.94;5111433;28;20058;-59
2021/12/11 00:11:52;;;;;;;5.22;3.15;;;;;;;17.70;23.86;101175.34;5111243;28;20127;-58
2021/12/11 00:14:19;;;;;;;0.00;0.00;;;;;;;17.58;23.99;101186.09;5111430;28;20457;-57
2021/12/11 00:16:45;;;;;;;1.70;1.48;;;;;;;17.47;25.38;101183.44;5111347;28;20372;-59
2021/12/11 00:19:29;;;;;;;0.60;0.60;;;;;;;17.47;24.50;101199.50;5111366;28;20050;-58
2021/12/11 00:22:05;;;;;;;4.22;0.57;;;;;;;17.52;24.53;101205.31;5111106;28;20077;-56
2021/12/11 00:24:33;;;;;;;0.25;0.25;;;;;;;17.55;25.38;101199.69;5111220;28;20408;-57
2021/12/11 00:27:26;;;;;;;0.30;0.30;;;;;;;17.52;25.24;101191.94;5111094;28;20484;-58
2021/12/11 00:29:53;;;;;;;3.20;2.80;;;;;;;17.53;24.90;101190.94;5092767;28;20055;-51
2021/12/11 00:32:21;;;;;;;0.22;0.22;;;;;;;17.54;24.96;101192.63;5111241;28;20055;-58
2021/12/11 00:34:47;;;;;;;1.45;1.35;;;;;;;17.50;24.50;101193.88;5110535;28;20485;-59
2021/12/11 00:37:15;;;;;;;2.13;1.33;;;;;;;17.53;24.11;101190.94;5111315;28;20126;-60
2021/12/11 00:39:47;;;;;;;;;;;;;;;17.56;24.15;101193.38;5111333;28;20054;-57
2021/12/11 00:42:13;;;;;;;0.25;0.25;;;;;;;17.50;24.43;101193.03;5110878;28;19975;-58
2021/12/11 00:44:44;;;;;;;0.00;0.00;;;;;;;17.48;25.01;101194.97;5110700;28;20408;-58
2021/12/11 00:47:20;;;;;;;0.15;0.15;;;;;;;17.57;25.10;101191.53;5111033;28;20109;-58
2021/12/11 00:50:10;;;;;;;1.27;1.00;;;;;;;17.44;24.07;101179.16;5108929;28;20136;-59
2021/12/11 00:52:42;;;;;;;0.47;0.47;;;;;;;17.41;23.94;101194.66;5100984;28;20048;-60
2021/12/11 00:55:20;;;;;;;0.20;0.20;;;;;;;17.37;23.77;101187.81;5091715;28;20040;-58
2021/12/11 00:57:47;;;;;;;7.38;2.85;;;;;;;17.31;24.90;101183.84;5090425;28;20130;-59
2021/12/11 01:00:19;;;;;;;0.15;0.15;;;;;;;17.39;24.61;101176.03;5098841;28;20036;-59
2021/12/11 01:02:46;;;;;;;3.72;2.72;;;;;;;17.46;23.74;101181.75;5091126;28;20408;-59
2021/12/11 01:05:11;;;;;;;0.00;0.00;;;;;;;17.44;24.56;101189.88;5090742;28;20051;-59
2021/12/11 01:07:39;;;;;;;0.38;0.38;;;;;;;17.40;23.32;101187.59;5090619;28;20047;-60
2021/12/11 01:10:13;;;;;;;0.17;0.17;;;;;;;17.54;23.81;101184.63;5090321;28;20044;-59
2021/12/11 01:12:50;;;;;;;0.35;0.35;;;;;;;17.55;24.54;101180.97;5091056;28;20507;-60
2021/12/11 01:15:25;;;;;;;3.38;1.73;;;;;;;17.57;24.01;101184.38;5110994;28;20051;-57
2021/12/11 01:18:20;;;;;;;0.00;0.00;;;;;;;17.51;24.07;101179.53;5110682;28;20039;-61
2021/12/11 01:20:57;;;;;;;0.00;0.00;;;;;;;17.49;24.16;101180.63;5110726;28;20409;-59
2021/12/11 01:25:58;;;;;;;0.20;0.20;;;;;;;17.51;23.93;101184.88;5090402;28;20789;-59
2021/12/11 01:28:24;;;;;;;0.35;0.35;;;;;;;17.55;23.32;101180.97;5090254;28;20056;-58
2021/12/11 01:30:50;;;;;;;0.10;0.10;;;;;;;17.50;23.20;101187.69;5090068;28;20051;-59
2021/12/11 01:33:17;;;;;;;1.17;0.47;;;;;;;17.43;23.28;101196.22;5097941;28;20042;-58
2021/12/11 01:35:43;;;;;;;0.00;0.00;;;;;;;17.44;22.93;101200.56;5110613;28;20038;-59
2021/12/11 01:38:16;;;;;;;0.28;0.28;;;;;;;17.34;24.00;101206.81;5109322;28;20044;-60
2021/12/11 01:40:45;;;;;;;0.32;0.32;;;;;;;17.30;24.07;101209.72;5110632;28;20072;-60
2021/12/11 01:43:12;;;;;;;1.35;1.25;;;;;;;17.39;24.00;101207.28;5112263;28;20043;-58
2021/12/11 01:45:46;;;;;;;7.47;2.45;;;;;;;17.44;23.75;101210.44;5105184;28;20055;-59
2021/12/11 01:48:17;;;;;;;0.32;0.30;;;;;;;17.43;24.12;101203.38;5093867;28;20044;-59
2021/12/11 01:50:46;;;;;;;0.00;0.00;;;;;;;17.49;23.33;101205.56;5093526;28;20072;-59
2021/12/11 01:53:20;;;;;;;0.00;0.00;;;;;;;17.35;23.59;101205.84;5093815;28;20048;-59
2021/12/11 01:55:53;;;;;;;15.68;6.70;;;;;;;17.41;23.98;101195.47;5093476;28;20062;-56
2021/12/11 01:58:26;;;;;;;0.55;0.55;;;;;;;17.39;23.89;101197.41;5093956;28;20040;-57
2021/12/11 02:00:57;;;;;;;1.55;1.23;;;;;;;17.30;24.79;101193.66;5095705;28;20054;-59
2021/12/11 02:03:26;;;;;;;0.00;0.00;;;;;;;17.37;24.30;101193.19;5092969;28;20162;-60
2021/12/11 02:05:52;;;;;;;0.38;0.38;;;;;;;17.44;23.37;101202.41;5107342;28;20658;-59
2021/12/11 02:08:28;;;;;;;0.13;0.13;;;;;;;17.28;24.49;101194.78;5112959;28;20130;-59
2021/12/11 02:11:05;;;;;;;0.70;0.70;;;;;;;17.34;24.47;101191.59;5113508;28;20031;-59
2021/12/11 02:13:41;;;;;;;0.00;0.00;;;;;;;17.34;24.75;101193.44;5113975;28;20486;-60
2021/12/11 02:16:19;;;;;;;0.00;0.00;;;;;;;17.37;24.15;101198.53;5113558;28;20039;-59
2021/12/11 02:18:47;;;;;;;0.00;0.00;;;;;;;17.32;24.27;101195.38;5113228;28;20036;-60
2021/12/11 02:21:12;;;;;;;;;;;;;;;17.25;24.59;101195.88;5113390;28;20046;-60
2021/12/11 02:23:39;;;;;;;0.00;0.00;;;;;;;17.24;24.65;101199.53;5113688;28;19916;-55
2021/12/11 02:26:15;;;;;;;2.05;1.90;;;;;;;17.27;24.16;101203.75;5113285;28;20040;-58
2021/12/11 02:29:01;;;;;;;0.75;0.70;;;;;;;17.40;24.45;101212.50;5113376;28;20051;-56
2021/12/11 02:31:51;;;;;;;0.50;0.50;;;;;;;17.34;23.64;101214.84;5113335;28;20172;-58
2021/12/11 02:34:26;;;;;;;1.27;0.45;;;;;;;17.28;23.28;101222.38;5112956;28;20047;-57
2021/12/11 02:36:58;;;;;;;3.40;2.13;;;;;;;17.25;23.95;101219.94;5113131;28;20051;-59
2021/12/11 02:39:46;;;;;;;0.93;0.93;;;;;;;17.27;23.76;101218.00;5113074;28;20065;-59
2021/12/11 02:42:14;;;;;;;;;;;;;;;17.26;24.06;101218.97;5113661;28;20808;-58
2021/12/11 02:44:51;;;;;;;1.27;1.17;;;;;;;17.29;25.10;101229.41;5112394;28;19916;-59
2021/12/11 02:47:28;;;;;;;0.00;0.00;;;;;;;17.26;23.77;101218.97;5094243;28;20036;-58
2021/12/11 02:50:17;;;;;;;1.35;1.30;;;;;;;17.30;24.50;101215.06;5112361;28;20055;-58
2021/12/11 02:52:59;;;;;;;1.92;0.80;;;;;;;17.38;23.78;101218.94;5092717;28;20052;-58
2021/12/11 02:55:25;;;;;;;3.72;1.67;;;;;;;17.40;23.64;101217.00;5074455;28;20044;-58
2021/12/11 02:57:58;;;;;;;0.13;0.13;;;;;;;17.41;23.85;101205.34;5092339;28;20040;-58
2021/12/11 03:00:39;;;;;;;0.47;0.47;;;;;;;17.28;23.28;101201.00;5094735;28;20036;-60
2021/12/11 03:03:08;;;;;;;0.00;0.00;;;;;;;17.30;24.22;101199.03;5112205;28;20043;-60
2021/12/11 03:05:45;;;;;;;1.20;1.13;;;;;;;17.21;23.75;101199.78;5112888;28;20040;-58
2021/12/11 03:08:14;;;;;;;0.30;0.30;;;;;;;17.22;23.84;101195.28;5112595;28;20066;-57
2021/12/11 03:10:42;;;;;;;0.50;0.50;;;;;;;17.25;23.32;101203.91;5111841;28;20035;-58
2021/12/11 03:13:09;;;;;;;0.00;0.00;;;;;;;17.35;23.43;101212.03;5112189;28;20978;-59
2021/12/11 03:15:35;;;;;;;1.40;1.30;;;;;;;17.30;22.56;101204.38;5092382;28;20054;-60
2021/12/11 03:18:02;;;;;;;1.55;1.45;;;;;;;17.38;24.13;101210.94;5099470;28;20120;-58
2021/12/11 03:20:29;;;;;;;0.03;0.03;;;;;;;17.32;22.58;101206.94;5103190;28;20035;-59
2021/12/11 03:22:55;;;;;;;0.00;0.00;;;;;;;17.37;24.17;101214.56;5110528;28;20500;-58
2021/12/11 03:25:24;;;;;;;0.00;0.00;;;;;;;17.19;23.33;101207.06;5109304;28;20510;-55
2021/12/11 03:27:52;;;;;;;0.20;0.20;;;;;;;17.16;23.69;101212.69;5111084;28;20051;-58
2021/12/11 03:30:23;;;;;;;0.00;0.00;;;;;;;17.19;23.76;101217.75;5111784;28;20174;-58
2021/12/11 03:32:52;;;;;;;2.05;1.05;;;;;;;17.24;24.59;101220.91;5107525;28;20042;-58
2021/12/11 03:35:19;;;;;;;5.18;1.00;;;;;;;17.20;24.41;101218.63;5110405;28;20074;-58
2021/12/11 03:37:44;;;;;;;0.68;0.65;;;;;;;17.27;23.16;101226.03;5109993;28;20039;-59
2021/12/11 03:40:11;;;;;;;1.40;1.30;;;;;;;17.33;24.23;101221.16;5110194;28;20492;-58
2021/12/11 03:42:41;;;;;;;0.00;0.00;;;;;;;17.39;23.99;101223.34;5111911;28;20043;-56
2021/12/11 03:45:11;;;;;;;1.48;0.90;;;;;;;17.32;24.19;101216.78;5111102;28;20419;-59
2021/12/11 03:47:41;;;;;;;0.00;0.00;;;;;;;17.32;22.31;101219.44;5110158;28;20043;-58
2021/12/11 03:50:12;;;;;;;1.30;1.27;;;;;;;17.30;24.23;101211.56;5110661;28;20414;-56
2021/12/11 03:52:42;;;;;;;16.30;1.65;;;;;;;17.23;23.93;101223.72;5105983;28;20043;-58
2021/12/11 03:55:12;;;;;;;0.22;0.22;;;;;;;17.27;23.00;101218.00;5111117;28;20086;-61
2021/12/11 03:57:39;;;;;;;1.25;0.55;;;;;;;17.29;22.39;101207.19;5109350;28;20054;-54
2021/12/11 04:00:12;;;;;;;2.13;2.03;;;;;;;17.24;22.72;101215.56;5092603;28;20047;-60
2021/12/11 04:02:40;;;;;;;0.65;0.65;;;;;;;17.24;23.01;101207.53;5109850;28;20047;-60
2021/12/11 04:05:08;;;;;;;1.35;1.35;;;;;;;17.26;23.92;101197.59;5109039;28;20527;-58
2021/12/11 04:07:46;;;;;;;2.15;1.10;;;;;;;17.18;21.82;101193.81;5108557;28;20043;-58
2021/12/11 04:10:14;;;;;;;0.00;0.00;;;;;;;17.16;22.06;101185.94;5107784;28;20367;-62
2021/12/11 04:12:40;;;;;;;0.22;0.22;;;;;;;17.21;23.13;101191.75;5109213;28;20067;-60
2021/12/11 04:15:07;;;;;;;0.20;0.20;;;;;;;17.25;23.75;101192.38;5100657;28;20124;-55
2021/12/11 04:17:33;;;;;;;1.40;1.25;;;;;;;17.31;23.51;101189.19;5109865;28;20105;-57
2021/12/11 04:20:03;;;;;;;1.35;1.08;;;;;;;17.36;23.56;101196.81;5100536;28;20377;-60
2021/12/11 04:22:29;;;;;;;0.40;0.40;;;;;;;17.48;23.46;101190.47;5111635;28;20423;-59
2021/12/11 04:24:55;;;;;;;0.10;0.10;;;;;;;17.52;24.40;101193.75;5111360;28;20043;-59
2021/12/11 04:27:24;;;;;;;2.30;1.58;;;;;;;17.56;22.72;101188.03;5111094;28;20044;-55
2021/12/11 04:29:51;;;;;;;2.63;2.53;;;;;;;17.55;23.08;101188.16;5111330;28;20506;-57
2021/12/11 04:32:19;;;;;;;1.15;0.65;;;;;;;17.50;22.92;101201.91;5111341;28;20067;-59
2021/12/11 04:34:46;;;;;;;0.52;0.45;;;;;;;17.58;23.09;101198.59;5111405;28;20040;-57
2021/12/11 04:37:18;;;;;;;2.63;2.43;;;;;;;17.55;22.58;101189.00;5110988;28;20035;-58
2021/12/11 04:39:50;;;;;;;0.05;0.05;;;;;;;17.51;23.74;101184.88;5111261;28;20541;-60
2021/12/11 04:42:30;;;;;;;7.78;2.17;;;;;;;17.49;22.87;101191.34;5111173;28;20608;-58
2021/12/11 04:44:56;;;;;;;6.05;2.25;;;;;;;17.47;24.21;101194.16;5111242;28;20054;-58
2021/12/11 04:47:38;;;;;;;0.00;0.00;;;;;;;17.49;23.74;101192.16;5111217;28;20047;-58
2021/12/11 04:50:15;;;;;;;0.52;0.52;;;;;;;17.43;22.94;101193.53;5110881;28;20042;-57
2021/12/11 04:53:00;;;;;;;5.63;2.72;;;;;;;17.42;23.38;101196.31;5093568;28;20067;-60
2021/12/11 04:55:50;;;;;;;1.65;1.55;;;;;;;17.36;22.84;101204.84;5111334;28;20092;-60
2021/12/11 05:01:15;;;;;;;3.17;2.92;;;;;;;17.46;22.83;101195.13;5110796;28;20071;-59
2021/12/11 05:04:11;;;;;;;2.33;1.52;;;;;;;17.45;23.85;101206.78;5111055;28;20047;-60
2021/12/11 05:06:52;;;;;;;3.40;2.38;;;;;;;17.42;22.71;101207.03;5110767;28;20058;-56
2021/12/11 05:12:11;;;;;;;3.55;3.30;;;;;;;17.30;23.81;101208.88;5110802;28;20428;-60
2021/12/11 05:14:38;;;;;;;6.40;1.15;;;;;;;17.48;22.02;101214.53;5092399;28;20074;-58
2021/12/11 05:17:04;;;;;;;0.90;0.90;;;;;;;17.39;22.45;101208.13;5092572;28;20044;-57
2021/12/11 05:19:30;;;;;;;0.00;0.00;;;;;;;17.33;21.93;101203.28;5114785;28;20534;-58
2021/12/11 05:21:56;;;;;;;1.35;1.25;;;;;;;17.35;23.03;101205.84;5114612;28;20504;-60
2021/12/11 05:24:22;;;;;;;3.70;2.78;;;;;;;17.48;23.74;101198.50;5114929;28;20054;-60
2021/12/11 05:26:48;;;;;;;0.32;0.32;;;;;;;17.53;23.50;101196.28;5114543;28;20500;-59
2021/12/11 05:29:14;;;;;;;0.38;0.20;;;;;;;17.48;23.34;101201.16;5114280;28;20070;-59
2021/12/11 05:31:40;;;;;;;1.27;1.20;;;;;;;17.52;23.52;101194.63;5114716;28;20416;-60
2021/12/11 05:34:07;;;;;;;1.77;1.35;;;;;;;17.65;23.02;101196.28;5114086;28;20043;-60
2021/12/11 05:36:35;;;;;;;1.52;1.50;;;;;;;17.73;23.78;101200.03;5114583;28;20043;-57
2021/12/11 05:39:02;;;;;;;;;;;;;;;17.69;22.43;101189.69;5114857;28;20040;-61
2021/12/11 05:41:27;;;;;;;1.48;0.50;;;;;;;17.56;21.72;101198.72;5114258;28;19915;-58
2021/12/11 05:43:55;;;;;;;0.47;0.30;;;;;;;17.61;22.93;101193.84;5114420;28;20416;-57
2021/12/11 05:46:21;;;;;;;0.63;0.55;;;;;;;17.70;22.05;101191.38;5099181;28;20052;-61
2021/12/11 05:48:49;;;;;;;0.15;0.15;;;;;;;17.66;22.69;101192.59;5093704;28;20036;-59
2021/12/11 05:51:19;;;;;;;0.22;0.22;;;;;;;17.62;21.08;101198.22;5093449;28;20076;-59
2021/12/11 05:53:46;;;;;;;0.38;0.38;;;;;;;17.65;22.62;101190.94;5093859;28;20036;-58
2021/12/11 05:56:13;;;;;;;0.70;0.63;;;;;;;17.65;22.82;101186.41;5075917;28;20082;-59
2021/12/11 06:01:28;;;;;;;1.27;0.40;;;;;;;17.74;22.63;101184.78;5093581;28;20047;-59
2021/12/11 06:03:54;;;;;;;2.45;2.35;;;;;;;17.70;21.80;101186.88;5093677;28;20128;-55
2021/12/11 06:06:20;;;;;;;0.43;0.43;;;;;;;17.79;22.10;101190.59;5093839;28;20051;-59
2021/12/11 06:08:46;;;;;;;0.00;0.00;;;;;;;17.84;22.43;101196.44;5093796;28;20048;-57
2021/12/11 06:11:14;;;;;;;2.80;1.55;;;;;;;17.86;22.30;101197.16;5093339;28;20063;-57
2021/12/11 06:13:39;;;;;;;1.60;1.23;;;;;;;17.90;21.99;101195.91;5093418;28;20036;-58
2021/12/11 06:16:06;;;;;;;4.18;3.78;;;;;;;17.83;22.72;101199.22;5093176;28;20042;-61
2021/12/11 06:18:32;;;;;;;0.00;0.00;;;;;;;18.01;21.70;101202.25;5093043;28;20373;-60
2021/12/11 06:20:58;;;;;;;0.10;0.10;;;;;;;18.01;22.23;101211.13;5093191;28;20079;-60
2021/12/11 06:23:24;;;;;;;0.80;0.70;;;;;;;18.14;21.59;101208.25;5103270;28;20492;-57
2021/12/11 06:25:51;;;;;;;1.95;1.85;;;;;;;18.22;21.91;101213.81;5094867;28;20041;-60
2021/12/11 06:28:17;;;;;;;0.55;0.55;;;;;;;18.35;20.30;101220.81;5093710;28;20096;-58
2021/12/11 06:30:44;;;;;;;0.28;0.28;;;;;;;18.26;20.15;101225.94;5113484;28;20046;-57
2021/12/11 06:33:10;;;;;;;0.00;0.00;;;;;;;18.39;21.45;101216.88;5112997;28;20511;-61
2021/12/11 06:35:38;;;;;;;0.13;0.13;;;;;;;18.51;21.77;101231.91;5094429;28;20063;-62
2021/12/11 06:38:06;;;;;;;1.38;1.27;;;;;;;18.48;20.84;101218.78;5111230;28;20047;-57
2021/12/11 06:40:32;;;;;;;1.90;1.77;;;;;;;18.58;21.04;101217.00;5112015;28;20420;-58
2021/12/11 06:42:59;;;;;;;5.22;2.35;;;;;;;18.62;21.68;101230.97;5105374;28;20046;-60
2021/12/11 06:45:25;;;;;;;0.47;0.47;;;;;;;18.71;21.54;101229.34;5108355;28;20482;-61
2021/12/11 06:47:52;;;;;;;8.07;3.88;;;;;;;15.62;22.11;101231.44;5108431;28;20043;-58
2021/12/11 06:50:18;;;;;;;8.95;3.03;;;;;;;14.19;23.68;101239.63;5108630;28;20107;-58
2021/12/11 06:52:46;;;;;;;10.48;4.72;;;;;;;13.31;24.71;101226.69;5108719;28;20046;-58
2021/12/11 06:55:13;;;;;;;13.30;4.32;;;;;;;12.77;25.29;101236.19;5107100;28;20036;-58
2021/12/11 06:57:39;;;;;;;7.60;4.40;;;;;;;12.39;25.88;101234.09;5105642;28;20031;-60
2021/12/11 07:00:06;;;;;;;9.30;3.92;;;;;;;12.06;25.73;101233.31;5109791;28;20040;-61
2021/12/11 07:02:32;;;;;;;24.83;6.68;;;;;;;11.90;26.10;101232.44;5110569;28;20040;-60
2021/12/11 07:04:57;;;;;;;14.57;4.28;;;;;;;11.62;26.28;101223.44;5108490;28;20113;-56
2021/12/11 07:07:27;;;;;;;29.63;5.22;;;;;;;11.44;25.68;101231.47;5106446;28;20066;-56
2021/12/11 07:09:54;;;;;;;14.13;5.65;;;;;;;11.24;25.94;101223.75;5100857;28;20122;-59
2021/12/11 07:12:21;;;;;;;16.67;5.20;;;;;;;11.19;26.41;101223.16;5091260;28;20044;-58
2021/12/11 07:14:47;;;;;;;9.85;4.10;;;;;;;11.11;26.44;101219.13;5095228;28;20134;-56
2021/12/11 07:17:13;;;;;;;20.50;5.97;;;;;;;11.04;26.32;101220.44;5107532;28;20031;-57
2021/12/11 07:19:40;;;;;;;10.50;4.57;;;;;;;10.89;26.17;101234.47;5107678;28;20110;-55
2021/12/11 07:22:06;;;;;;;13.40;4.68;;;;;;;10.90;25.95;101236.19;5107050;28;20035;-55
2021/12/11 07:24:37;;;;;;;521.92;221.25;;;;;;;10.00;27.75;101251.28;5107267;28;20469;-61
2021/12/11 07:27:06;;;;;;;36.10;17.25;;;;;;;10.45;26.65;101249.94;5106922;28;20038;-64
2021/12/11 07:29:32;;;;;;;9.10;5.30;;;;;;;10.68;26.00;101247.91;5107926;28;20050;-65
2021/12/11 07:31:58;;;;;;;7.13;2.83;;;;;;;10.54;26.44;101250.41;5106678;28;20043;-64
2021/12/11 07:34:24;;;;;;;5.07;3.30;;;;;;;10.66;26.27;101252.44;5106755;28;20042;-62
2021/12/11 07:36:51;;;;;;;10.35;4.40;;;;;;;10.95;26.33;101244.75;5106971;28;20031;-65
2021/12/11 07:39:19;;;;;;;10.52;4.60;;;;;;;10.79;26.16;101237.63;5107158;28;20032;-63
2021/12/11 07:41:45;;;;;;;6.45;2.53;;;;;;;10.78;26.35;101243.84;5106084;28;20100;-64
2021/12/11 07:44:11;;;;;;;5.60;2.40;;;;;;;10.74;26.20;101247.59;5107823;28;20126;-63
2021/12/11 07:46:37;;;;;;;4.93;2.92;;;;;;;10.87;26.16;101247.81;5107026;28;20179;-65
2021/12/11 07:49:05;;;;;;;9.23;3.78;;;;;;;10.86;25.91;101245.25;5106985;28;20508;-64
2021/12/11 07:51:31;;;;;;;2.60;1.83;;;;;;;10.91;26.03;101248.50;5106529;28;20465;-64
2021/12/11 07:53:58;;;;;;;6.38;2.67;;;;;;;10.88;25.96;101244.22;5105974;28;20039;-64
2021/12/11 07:56:24;;;;;;;7.45;2.72;;;;;;;10.94;25.87;101241.25;5106434;28;20035;-63
2021/12/11 07:58:53;;;;;;;8.35;2.67;;;;;;;11.05;25.70;101253.88;5088830;28;20035;-65
2021/12/11 08:01:19;;;;;;;3.72;2.00;;;;;;;10.88;25.43;101243.34;5088075;28;20027;-62
2021/12/11 08:03:45;;;;;;;6.88;2.60;;;;;;;10.98;25.55;101247.25;5104051;28;20515;-60
2021/12/11 08:06:13;;;;;;;4.43;2.38;;;;;;;10.96;25.13;101246.44;5106535;28;20039;-65
2021/12/11 08:08:40;;;;;;;;;;;;;;;11.13;24.63;101249.06;5107495;28;20047;-60
2021/12/11 08:11:12;;;;;;;3.17;2.05;;;;;;;10.35;25.13;101251.31;5110025;28;19916;-60
2021/12/11 08:13:43;;;;;;;5.13;2.65;;;;;;;9.92;26.15;101253.44;5111380;28;20412;-64
2021/12/11 08:16:10;;;;;;;6.30;3.72;;;;;;;10.02;26.23;101249.44;5092222;28;20059;-58
2021/12/11 08:18:37;;;;;;;5.45;2.78;;;;;;;10.80;25.29;101241.97;5110174;28;20047;-58
2021/12/11 08:21:03;;;;;;;8.15;2.83;;;;;;;10.74;25.07;101242.31;5110210;28;20052;-58
2021/12/11 08:23:29;;;;;;;10.63;3.55;;;;;;;10.76;24.99;101240.41;5075418;28;20050;-55
2021/12/11 08:25:57;;;;;;;4.25;3.45;;;;;;;10.72;24.91;101232.75;5110529;28;20035;-57
2021/12/11 08:28:27;;;;;;;7.05;2.67;;;;;;;10.80;25.45;101236.69;5110437;28;20104;-56
2021/12/11 08:30:53;;;;;;;3.38;2.45;;;;;;;10.80;25.26;101239.34;5111082;28;20183;-55
2021/12/11 08:33:20;;;;;;;8.18;3.42;;;;;;;10.92;24.84;101236.97;5105113;28;20047;-52
2021/12/11 08:35:46;;;;;;;4.53;2.22;;;;;;;10.93;25.16;101231.59;5105905;28;20392;-53
2021/12/11 08:38:13;;;;;;;8.55;3.22;;;;;;;10.82;25.40;101224.22;5109706;28;20661;-58
2021/12/11 08:40:43;;;;;;;1.02;0.98;;;;;;;13.07;24.97;101212.22;5104385;28;20627;-57
2021/12/11 08:43:10;;;;;;;0.00;0.00;;;;;;;14.86;22.45;101202.19;5109470;28;20048;-53
2021/12/11 08:45:49;;;;;;;2.03;0.65;;;;;;;15.90;20.73;101200.09;5111077;28;20039;-58
2021/12/11 08:48:20;;;;;;;2.08;1.77;;;;;;;16.78;19.77;101203.16;5108957;28;20040;-55
2021/12/11 08:50:48;;;;;;;2.08;1.70;;;;;;;17.42;19.34;101196.31;5091498;28;20184;-54
2021/12/11 08:53:15;;;;;;;1.75;0.47;;;;;;;18.01;20.11;101199.56;5114402;28;20130;-52
2021/12/11 08:55:44;;;;;;;0.00;0.00;;;;;;;18.52;20.29;101198.75;5114780;28;20547;-55
2021/12/11 08:58:12;;;;;;;0.00;0.00;;;;;;;18.98;19.60;101193.06;5096445;28;20036;-52
2021/12/11 09:00:52;;;;;;;0.57;0.57;;;;;;;19.14;19.28;101189.88;5111283;28;20063;-57
2021/12/11 09:03:34;;;;;;;0.00;0.00;;;;;;;19.30;19.13;101192.03;5103322;28;20092;-58
2021/12/11 09:06:10;;;;;;;0.00;0.00;;;;;;;19.60;18.89;101195.59;5106891;28;20091;-56
2021/12/11 09:09:01;;;;;;;0.00;0.00;;;;;;;19.62;18.95;101183.75;5106445;28;20040;-57
2021/12/11 09:11:32;;;;;;;0.30;0.20;;;;;;;19.69;17.86;101202.84;5112457;28;20106;-57
2021/12/11 09:14:04;;;;;;;0.43;0.25;;;;;;;19.76;18.79;101198.56;5107514;28;20036;-58
2021/12/11 09:16:35;;;;;;;1.75;1.65;;;;;;;19.92;19.15;101199.91;5112562;28;20043;-56
2021/12/11 09:19:12;;;;;;;0.00;0.00;;;;;;;19.90;18.21;101186.63;5103615;28;20043;-57
2021/12/11 09:21:48;;;;;;;1.00;0.95;;;;;;;19.92;18.49;101184.63;5107568;28;20134;-58
2021/12/11 09:24:26;;;;;;;0.20;0.20;;;;;;;19.90;18.81;101185.75;5097058;28;20184;-58
2021/12/11 09:26:57;;;;;;;0.00;0.00;;;;;;;19.89;18.39;101184.91;5096424;28;20369;-57
2021/12/11 09:29:23;;;;;;;0.22;0.22;;;;;;;19.79;19.24;101184.03;5114205;28;20046;-56
2021/12/11 09:31:58;;;;;;;0.00;0.00;;;;;;;19.82;18.89;101189.97;5114160;28;20443;-56
2021/12/11 09:34:33;;;;;;;0.32;0.32;;;;;;;19.78;18.89;101185.88;5114227;28;20396;-57
2021/12/11 09:37:00;;;;;;;16.42;2.05;;;;;;;19.84;19.13;101185.34;5096366;28;20522;-54
2021/12/11 09:39:32;;;;;;;0.00;0.00;;;;;;;19.83;19.42;101180.94;5114446;28;20089;-58
2021/12/11 09:41:57;;;;;;;0.10;0.10;;;;;;;19.82;19.16;101178.38;5109996;28;20047;-57
2021/12/11 09:44:33;;;;;;;0.00;0.00;;;;;;;19.78;19.81;101163.56;5094690;28;20039;-57
2021/12/11 09:47:08;;;;;;;0.00;0.00;;;;;;;19.88;19.35;101175.16;5111922;28;20092;-58
2021/12/11 09:49:38;;;;;;;0.90;0.90;;;;;;;19.80;19.62;101173.16;5092012;28;20043;-56
2021/12/11 09:52:23;;;;;;;0.00;0.00;;;;;;;19.71;19.40;101171.31;5106460;28;20039;-57
2021/12/11 09:55:08;;;;;;;1.17;0.52;;;;;;;19.67;18.64;101180.63;5087768;28;20042;-54
2021/12/11 09:57:38;;;;;;;1.13;0.73;;;;;;;19.84;20.04;101179.13;5095294;28;20122;-56
2021/12/11 10:00:22;;;;;;;0.00;0.00;;;;;;;19.80;19.41;101164.25;5113174;28;20126;-57
2021/12/11 10:02:49;;;;;;;0.00;0.00;;;;;;;19.91;19.31;101172.19;5111055;28;20511;-56
2021/12/11 10:05:34;;;;;;;1.37;0.97;;;;;;;19.95;19.48;101173.59;5094771;28;20042;-55
2021/12/11 10:08:55;;;;;;;0.00;0.00;;;;;;;19.98;18.88;101169.78;5113063;28;20259;-59
2021/12/11 10:11:11;;;;;;;0.80;0.80;;;;;;;19.80;18.53;101164.25;5099512;28;20448;-57
2021/12/11 10:13:46;;;;;;;0.08;0.08;;;;;;;19.81;18.98;101161.44;5111541;28;20043;-52
2021/12/11 10:16:14;;;;;;;0.10;0.10;;;;;;;19.80;18.98;101164.25;5111420;28;20104;-56
2021/12/11 10:18:40;;;;;;;;;;;;;;;19.70;19.04;101165.09;5113935;28;20040;-55
2021/12/11 10:21:11;;;;;;;0.00;0.00;;;;;;;19.64;18.15;101160.31;5113192;28;19923;-54
2021/12/11 10:23:39;;;;;;;1.40;0.98;;;;;;;19.69;18.93;101163.41;5113838;28;20074;-55
2021/12/11 10:26:10;;;;;;;0.00;0.00;;;;;;;19.64;19.05;101162.13;5110523;28;20036;-55
2021/12/11 10:28:51;;;;;;;0.00;0.00;;;;;;;19.58;19.27;101170.72;5110718;28;20062;-54
2021/12/11 10:31:26;;;;;;;0.25;0.25;;;;;;;19.43;18.46;101163.09;5112645;28;20559;-56
2021/12/11 10:33:53;;;;;;;0.47;0.47;;;;;;;19.46;18.46;101165.50;5111861;28;20043;-56
2021/12/11 10:36:25;;;;;;;0.00;0.00;;;;;;;19.47;19.06;101161.84;5091145;28;20369;-58
2021/12/11 10:38:52;;;;;;;0.00;0.00;;;;;;;19.47;19.21;101158.31;5094666;28;20044;-56
2021/12/11 10:41:19;;;;;;;0.30;0.30;;;;;;;19.52;19.46;101164.94;5111983;28;20040;-56
2021/12/11 10:44:16;;;;;;;0.10;0.10;;;;;;;19.65;18.37;101155.78;5109257;28;20046;-57
2021/12/11 10:46:51;;;;;;;;;;;;;;;20.61;18.32;101153.09;5112200;28;20552;-53
2021/12/11 10:49:18;;;;;;;6.93;6.50;;;;;;;21.48;17.08;101150.91;5110816;28;19916;-57
2021/12/11 10:51:54;;;;;;;0.00;0.00;;;;;;;22.19;16.49;101142.06;5093396;28;20067;-59
2021/12/11 10:54:20;;;;;;;0.00;0.00;;;;;;;22.60;15.85;101140.50;5111767;28;20046;-56
2021/12/11 10:56:47;;;;;;;0.00;0.00;;;;;;;22.96;15.82;101133.22;5111813;28;20122;-56
2021/12/11 10:59:20;;;;;;;0.75;0.75;;;;;;;23.19;15.48;101128.06;5112193;28;20075;-56
2021/12/11 11:02:04;;;;;;;0.00;0.00;;;;;;;23.43;15.01;101125.41;5111936;28;20456;-56
2021/12/11 11:04:51;;;;;;;0.00;0.00;;;;;;;23.63;14.92;101130.47;5109618;28;20054;-55
2021/12/11 11:07:17;;;;;;;0.00;0.00;;;;;;;23.77;14.43;101128.94;5110356;28;20093;-55
2021/12/11 11:09:43;;;;;;;0.00;0.00;;;;;;;23.90;14.20;101136.53;5094070;28;20047;-56
2021/12/11 11:12:13;;;;;;;0.40;0.32;;;;;;;23.96;14.23;101124.25;5109116;28;20159;-59
2021/12/11 11:14:40;;;;;;;2.83;0.47;;;;;;;24.02;14.18;101118.16;5111192;28;20035;-57
2021/12/11 11:17:09;;;;;;;0.00;0.00;;;;;;;23.49;14.50;101120.34;5110704;28;20538;-58
2021/12/11 11:19:38;;;;;;;3.42;2.35;;;;;;;23.02;14.75;101117.19;5111341;28;20100;-57
2021/12/11 11:22:12;;;;;;;0.45;0.45;;;;;;;22.72;14.92;101119.47;5110938;28;20085;-56
2021/12/11 11:24:45;;;;;;;0.08;0.08;;;;;;;22.28;14.88;101125.78;5110823;28;20088;-53
2021/12/11 11:27:11;;;;;;;1.42;0.60;;;;;;;22.12;15.22;101120.31;5106845;28;20039;-56
2021/12/11 11:29:41;;;;;;;4.47;4.20;;;;;;;21.91;15.17;101126.06;5109843;28;20047;-57
2021/12/11 11:32:11;;;;;;;0.00;0.00;;;;;;;21.69;15.12;101120.16;5107574;28;20084;-57
2021/12/11 11:34:40;;;;;;;0.47;0.47;;;;;;;21.45;15.69;101107.31;5109567;28;20043;-59
2021/12/11 11:37:09;;;;;;;0.00;0.00;;;;;;;21.28;15.07;101117.06;5110498;28;20035;-57
2021/12/11 11:39:35;;;;;;;1.58;1.48;;;;;;;21.19;15.25;101107.22;5110180;28;20042;-56
2021/12/11 11:42:10;;;;;;;0.00;0.00;;;;;;;20.94;15.66;101109.66;5110260;28;20035;-57
2021/12/11 11:44:37;;;;;;;2.08;0.98;;;;;;;20.72;15.71;101105.50;5091944;28;20176;-57
2021/12/11 11:47:05;;;;;;;1.10;1.00;;;;;;;20.67;16.00;101103.22;5111542;28;20784;-58
2021/12/11 11:49:33;;;;;;;0.22;0.22;;;;;;;20.50;16.65;101110.28;5111248;28;20143;-56
2021/12/11 11:52:07;;;;;;;0.20;0.20;;;;;;;20.39;16.52;101113.97;5111528;28;20040;-58
2021/12/11 11:54:33;;;;;;;0.98;0.98;;;;;;;20.29;16.92;101105.13;5110878;28;20071;-57